createdAt,value
2019-05-20T02:17:17.868Z,2.30
2019-05-20T02:19:49.047Z,2.40
2019-05-20T02:22:20.253Z,3.00
2019-05-20T02:24:51.401Z,2.17
2019-05-20T02:27:23.997Z,2.10
2019-05-20T02:29:55.085Z,2.15
2019-05-20T02:32:26.238Z,2.47
2019-05-20T02:34:57.336Z,2.02
2019-05-20T02:37:28.496Z,2.40
2019-05-20T02:39:59.544Z,2.50
2019-05-20T02:42:30.593Z,2.25
2019-05-20T02:47:32.161Z,2.17
2019-05-20T02:50:03.556Z,2.20
2019-05-20T02:52:34.843Z,2.20
2019-05-20T07:59:46.125Z,1.75
2019-05-20T08:02:17.611Z,1.77
2019-05-20T08:04:48.825Z,1.67
2019-05-20T08:07:30.015Z,1.20
2019-05-20T08:12:52.416Z,1.80
2019-05-20T08:15:25.865Z,2.20
2019-05-20T08:17:57.159Z,1.95
2019-05-20T08:20:35.483Z,2.10
2019-05-20T08:23:06.687Z,1.80
2019-05-20T08:25:37.977Z,1.98
2019-05-20T08:28:39.725Z,2.10
2019-05-20T08:31:13.400Z,1.85
2019-05-20T08:33:44.528Z,2.00
2019-05-20T08:36:15.747Z,1.80
2019-05-20T08:38:46.908Z,1.30
2019-05-20T08:41:20.925Z,1.52
2019-05-20T08:44:10.252Z,1.47
2019-05-20T08:46:41.666Z,1.35
2019-05-20T08:49:16.355Z,1.52
2019-05-20T08:51:52.607Z,1.37
2019-05-20T08:54:30.577Z,1.60
2019-05-20T08:57:01.955Z,1.40
2019-05-20T08:59:50.707Z,1.50
2019-05-20T09:02:21.940Z,1.47
2019-05-20T09:04:53.261Z,1.42
2019-05-20T09:07:24.473Z,1.22
2019-05-20T09:09:55.999Z,1.50
2019-05-20T09:12:27.454Z,1.25
2019-05-20T09:17:39.097Z,1.15
2019-05-20T09:22:40.248Z,1.07
2019-05-20T09:25:12.916Z,1.20
2019-05-20T09:30:17.511Z,2.27
2019-05-20T09:36:41.074Z,2.62
2019-05-20T09:39:44.152Z,2.62
2019-05-20T09:42:18.145Z,2.00
2019-05-20T09:44:53.483Z,1.80
2019-05-20T09:47:27.216Z,1.67
2019-05-20T09:53:07.832Z,1.47
2019-05-20T09:55:38.863Z,1.60
2019-05-20T09:58:16.342Z,1.80
2019-05-20T10:00:51.456Z,3.35
2019-05-20T10:03:29.888Z,2.10
2019-05-20T10:06:00.989Z,2.00
2019-05-20T10:08:38.961Z,2.80
2019-05-20T10:14:41.268Z,1.82
2019-05-20T10:17:55.395Z,1.80
2019-05-20T10:22:16.583Z,2.02
2019-05-20T10:29:37.150Z,1.60
2019-05-20T10:35:08.878Z,1.40
2019-05-20T10:37:55.578Z,1.70
2019-05-20T10:41:00.021Z,2.00
2019-05-20T10:43:36.502Z,2.05
2019-05-20T10:46:43.628Z,2.72
2019-05-20T10:49:34.658Z,1.90
2019-05-20T10:52:21.146Z,2.80
2019-05-20T11:02:40.913Z,1.45
2019-05-20T11:05:15.675Z,1.90
2019-05-20T11:11:03.276Z,1.57
2019-05-20T11:13:39.661Z,1.50
2019-05-20T11:16:32.205Z,1.45
2019-05-20T11:19:05.226Z,1.45
2019-05-20T11:49:14.799Z,1.53
2019-05-20T11:51:52.182Z,1.52
2019-05-20T11:54:36.122Z,1.72
2019-05-20T11:57:14.648Z,1.25
2019-05-20T12:00:00.829Z,1.80
2019-05-20T12:02:47.118Z,1.20
2019-05-20T12:05:35.929Z,1.05
2019-05-20T12:08:11.303Z,1.67
2019-05-20T12:10:48.100Z,1.72
2019-05-20T12:19:02.611Z,1.95
2019-05-20T12:21:38.854Z,1.50
2019-05-20T12:24:10.132Z,2.50
2019-05-20T12:26:41.535Z,3.10
2019-05-20T12:29:14.183Z,3.25
2019-05-20T12:31:48.065Z,1.72
2019-05-20T12:49:22.065Z,1.75
2019-05-20T12:51:53.582Z,1.50
2019-05-20T12:54:24.931Z,1.50
2019-05-20T12:56:56.303Z,0.80
2019-05-20T12:59:27.603Z,1.67
2019-05-20T13:01:59.013Z,1.45
2019-05-20T13:04:31.259Z,1.77
2019-05-20T13:07:03.131Z,1.40
2019-05-20T13:09:35.597Z,1.70
2019-05-20T13:12:06.871Z,1.45
2019-05-20T13:14:40.828Z,1.90
2019-05-20T13:17:12.031Z,2.92
2019-05-20T13:23:53.985Z,1.75
2019-05-20T13:26:19.848Z,1.30
2019-05-20T13:29:01.211Z,1.10
2019-05-20T13:34:08.658Z,1.42
2019-05-20T13:38:40.317Z,3.30
2019-05-20T13:45:57.249Z,1.90
2019-05-20T13:48:41.982Z,3.65
2019-05-20T13:51:16.200Z,3.37
2019-05-20T13:53:52.802Z,4.90
2019-05-20T13:56:26.059Z,3.60
2019-05-20T13:59:03.219Z,4.70
2019-05-20T14:01:45.203Z,4.30
2019-05-20T14:04:24.534Z,2.58
2019-05-20T14:06:57.817Z,2.10
2019-05-20T14:09:41.028Z,1.72
2019-05-20T14:12:23.347Z,1.80
2019-05-20T14:14:58.025Z,2.60
2019-05-20T14:17:29.852Z,3.58
2019-05-20T14:20:07.929Z,4.37
2019-05-20T14:22:39.491Z,4.05
2019-05-20T14:25:10.998Z,3.75
2019-05-20T14:27:42.589Z,5.60
2019-05-20T14:30:19.645Z,4.50
2019-05-20T14:39:27.711Z,2.20
2019-05-20T14:41:59.296Z,2.85
2019-05-20T14:44:50.358Z,3.08
2019-05-20T14:47:30.385Z,4.45
2019-05-20T14:55:08.084Z,4.58
2019-05-20T15:00:29.777Z,1.90
2019-05-20T15:03:01.233Z,2.08
2019-05-20T15:05:33.428Z,5.45
2019-05-20T15:08:04.990Z,5.12
2019-05-20T15:10:36.856Z,4.03
2019-05-20T15:13:08.137Z,3.17
2019-05-20T15:15:39.390Z,4.62
2019-05-20T15:18:11.035Z,3.02
2019-05-20T15:20:42.238Z,3.62
2019-05-20T15:23:13.355Z,7.70
2019-05-20T15:25:44.718Z,13.08
2019-05-20T15:28:17.568Z,14.45
2019-05-20T15:30:52.098Z,13.03
2019-05-20T15:33:23.643Z,9.88
2019-05-20T16:06:11.410Z,14.28
2019-05-20T16:08:43.887Z,17.23
2019-05-20T16:11:17.144Z,16.10
2019-05-20T16:13:48.217Z,14.07
2019-05-20T16:16:19.668Z,17.67
2019-05-20T16:18:50.846Z,13.43
2019-05-20T16:21:22.064Z,12.93
2019-05-20T16:23:53.310Z,14.35
2019-05-20T16:26:24.519Z,21.33
2019-05-20T16:28:56.709Z,31.80
2019-05-20T16:31:28.210Z,28.50
2019-05-20T16:33:59.778Z,30.68
2019-05-20T16:36:32.181Z,34.23
2019-05-20T16:41:34.469Z,29.05
2019-05-20T16:44:05.823Z,26.25
2019-05-20T16:46:37.028Z,26.87
2019-05-20T16:49:08.305Z,28.42
2019-05-20T16:51:39.689Z,27.70
2019-05-20T16:54:10.837Z,22.27
2019-05-20T16:56:42.082Z,20.97
2019-05-20T16:59:14.579Z,23.38
2019-05-20T17:01:48.139Z,20.75
2019-05-20T17:04:19.509Z,25.35
2019-05-20T17:06:52.235Z,28.12
2019-05-20T17:11:54.085Z,22.75
2019-05-20T17:14:25.221Z,20.52
2019-05-20T17:16:56.472Z,13.70
2019-05-20T17:19:27.710Z,11.15
2019-05-20T17:21:58.933Z,10.20
2019-05-20T17:24:31.622Z,8.93
2019-05-20T17:27:03.630Z,6.17
2019-05-20T17:29:35.834Z,4.85
2019-05-20T17:32:07.667Z,4.83
2019-05-20T17:34:41.778Z,3.12
2019-05-20T17:37:12.967Z,2.50
2019-05-20T17:39:44.122Z,2.70
2019-05-20T17:42:15.433Z,2.12
2019-05-20T17:44:46.615Z,1.50
2019-05-20T17:47:18.036Z,1.70
2019-05-20T17:49:49.160Z,1.30
2019-05-20T17:52:20.406Z,1.52
2019-05-20T17:54:51.519Z,1.15
2019-05-20T17:57:22.801Z,1.12
2019-05-20T17:59:54.053Z,1.20
2019-05-20T18:02:25.322Z,1.45
2019-05-20T18:04:56.437Z,0.98
2019-05-20T18:07:27.640Z,1.27
2019-05-20T18:09:58.792Z,1.62
2019-05-20T18:12:30.036Z,1.40
2019-05-20T18:15:02.785Z,1.95
2019-05-20T18:20:06.338Z,1.65
2019-05-20T18:22:37.499Z,1.17
2019-05-20T18:25:08.690Z,1.25
2019-05-20T18:27:39.868Z,1.15
2019-05-20T18:30:12.951Z,1.02
2019-05-20T18:32:44.098Z,1.25
2019-05-20T18:35:15.222Z,1.30
2019-05-20T18:37:46.489Z,1.70
2019-05-20T18:40:17.817Z,1.20
2019-05-20T18:42:49.100Z,1.50
2019-05-20T18:45:20.269Z,1.70
2019-05-20T18:47:51.435Z,1.50
2019-05-20T18:50:22.540Z,1.50
2019-05-20T18:52:55.312Z,1.77
2019-05-20T18:57:56.870Z,2.22
2019-05-20T19:00:28.140Z,2.30
2019-05-20T19:03:06.916Z,1.85
2019-05-20T19:05:38.147Z,1.65
2019-05-20T19:08:09.371Z,1.90
2019-05-20T19:10:40.642Z,2.27
2019-05-20T19:13:12.972Z,1.50
2019-05-20T19:15:44.209Z,2.12
2019-05-20T19:18:15.334Z,2.30
2019-05-20T19:20:46.507Z,1.87
2019-05-20T19:23:17.678Z,1.70
2019-05-20T19:25:48.823Z,1.98
2019-05-20T19:28:21.041Z,2.00
2019-05-20T19:30:52.170Z,1.60
2019-05-20T19:33:23.306Z,2.15
2019-05-20T19:35:54.406Z,2.17
2019-05-20T19:38:26.665Z,3.05
2019-05-20T19:40:57.844Z,1.77
2019-05-20T19:43:29.120Z,1.85
2019-05-20T19:46:00.324Z,2.70
2019-05-20T19:48:31.464Z,2.47
2019-05-20T19:51:02.912Z,2.90
2019-05-20T19:53:34.078Z,2.27
2019-05-20T19:56:05.259Z,2.20
2019-05-20T19:58:36.557Z,2.00
2019-05-20T20:01:07.728Z,2.22
2019-05-20T20:03:40.288Z,1.87
2019-05-20T20:06:11.480Z,1.92
2019-05-20T20:08:42.633Z,1.52
2019-05-20T20:11:13.765Z,1.50
2019-05-20T20:13:44.951Z,1.60
2019-05-20T20:16:18.121Z,1.47
2019-05-20T20:18:49.957Z,1.65
2019-05-20T20:21:21.081Z,1.30
2019-05-20T20:23:52.249Z,1.85
2019-05-20T20:26:23.399Z,1.40
2019-05-20T20:28:54.567Z,1.60
2019-05-20T20:31:25.758Z,2.37
2019-05-20T20:33:56.874Z,1.65
2019-05-20T20:36:28.063Z,2.08
2019-05-20T20:39:00.205Z,1.80
2019-05-20T20:41:31.331Z,1.57
2019-05-20T20:44:02.463Z,1.55
2019-05-20T20:46:33.587Z,1.82
2019-05-20T20:49:04.742Z,1.87
2019-05-20T20:51:36.027Z,2.00
2019-05-20T20:54:07.251Z,2.15
2019-05-20T20:56:38.405Z,2.37
2019-05-20T20:59:10.028Z,2.40
2019-05-20T21:01:41.359Z,2.33
2019-05-20T21:04:12.481Z,2.70
2019-05-20T21:06:44.234Z,1.80
2019-05-20T21:09:15.422Z,2.40
2019-05-20T21:11:48.035Z,2.15
2019-05-20T21:16:49.773Z,1.92
2019-05-20T21:19:20.917Z,2.30
2019-05-20T21:21:52.111Z,2.35
2019-05-20T21:24:23.602Z,2.25
2019-05-20T21:26:54.730Z,2.33
2019-05-20T21:29:25.880Z,2.55
2019-05-20T21:31:57.023Z,2.40
2019-05-20T21:34:29.113Z,2.17
2019-05-20T21:37:01.331Z,2.10
2019-05-20T21:39:32.471Z,2.30
2019-05-20T21:42:03.616Z,2.20
2019-05-20T21:44:34.828Z,1.87
2019-05-20T21:47:05.912Z,2.50
2019-05-20T21:49:37.038Z,2.30
2019-05-20T21:52:08.103Z,3.00
2019-05-20T21:54:39.259Z,2.95
2019-05-20T21:57:10.365Z,3.20
2019-05-20T21:59:41.604Z,3.02
2019-05-20T22:02:13.755Z,3.42
2019-05-20T22:04:44.896Z,2.72
2019-05-20T22:07:16.035Z,2.62
2019-05-20T22:09:47.226Z,3.10
2019-05-20T22:12:19.349Z,2.60
2019-05-20T22:14:50.578Z,2.98
2019-05-20T22:17:21.741Z,3.27
2019-05-20T22:19:53.215Z,2.85
2019-05-20T22:22:44.514Z,2.80
2019-05-20T22:25:15.788Z,2.90
2019-05-20T22:27:46.879Z,3.10
2019-05-20T22:30:18.001Z,3.50
2019-05-20T22:32:49.198Z,3.35
2019-05-20T22:35:20.332Z,3.55
2019-05-20T22:37:51.475Z,3.87
2019-05-20T22:40:22.584Z,3.60
2019-05-20T22:42:53.716Z,3.00
2019-05-20T22:45:24.786Z,4.00
2019-05-20T22:47:55.923Z,3.27
2019-05-20T22:50:27.113Z,3.47
2019-05-20T22:52:58.271Z,3.02
2019-05-20T22:55:29.456Z,2.95
2019-05-20T22:58:00.866Z,2.83
2019-05-20T23:00:32.037Z,4.17
2019-05-20T23:03:03.148Z,4.08
2019-05-20T23:05:34.406Z,2.90
2019-05-20T23:08:05.611Z,3.20
2019-05-20T23:10:36.723Z,3.45
2019-05-20T23:13:07.852Z,3.37
2019-05-20T23:15:39.016Z,2.98
2019-05-20T23:18:10.041Z,2.72
2019-05-20T23:20:41.186Z,2.83
2019-05-20T23:23:12.335Z,3.00
2019-05-20T23:25:43.508Z,2.90
2019-05-20T23:28:14.681Z,3.50
2019-05-20T23:30:45.876Z,3.30
2019-05-20T23:33:17.026Z,3.33
2019-05-20T23:35:49.162Z,3.55
2019-05-20T23:38:20.165Z,3.22
2019-05-20T23:40:51.745Z,2.87
2019-05-20T23:43:22.840Z,3.75
2019-05-20T23:45:54.982Z,2.98
2019-05-20T23:48:27.966Z,2.55
2019-05-20T23:50:58.755Z,3.60
2019-05-20T23:53:29.855Z,2.75
2019-05-20T23:56:01.437Z,2.65
2019-05-20T23:58:32.509Z,3.22
